Time;durP1;ratioP1;P1;durP2;ratioP2;P2;SDS_P1;SDS_P2;PMS_P1;PMS_P2;Temp;Humidity;BMP_temperature;BMP_pressure;BME280_temperature;BME280_humidity;BME280_pressure;Samples;Min_cycle;Max_cycle;Signal;HPM_P1;HPM_P2
2023/05/13 00:00:11;;;;;;;11.77;8.00;;;;;;;;;;6268593;28;20189;-57
2023/05/13 00:03:12;;;;;;;12.97;7.87;;;;;;;;;;6282155;28;20205;-57
2023/05/13 00:06:13;;;;;;;10.53;7.13;;;;;;;;;;6270197;28;20190;-57
2023/05/13 00:09:14;;;;;;;7.27;5.63;;;;;;;;;;6274954;28;20200;-57
2023/05/13 00:12:15;;;;;;;6.90;5.67;;;;;;;;;;6253586;28;20281;-58
2023/05/13 00:15:17;;;;;;;8.73;5.93;;;;;;;;;;6258094;28;20656;-57
2023/05/13 00:18:18;;;;;;;14.00;9.30;;;;;;;;;;6253152;28;20240;-57
2023/05/13 00:21:19;;;;;;;7.90;6.23;;;;;;;;;;6257667;28;20205;-58
2023/05/13 00:24:20;;;;;;;9.67;7.50;;;;;;;;;;6273824;28;20193;-58
2023/05/13 00:27:21;;;;;;;9.03;6.63;;;;;;;;;;6257985;28;20205;-58
2023/05/13 00:30:22;;;;;;;10.63;6.97;;;;;;;;;;6256889;28;20272;-58
2023/05/13 00:33:23;;;;;;;9.67;7.37;;;;;;;;;;6257541;28;20239;-58
2023/05/13 00:36:26;;;;;;;7.17;5.83;;;;;;;;;;6249024;28;20658;-58
2023/05/13 00:39:27;;;;;;;6.93;6.17;;;;;;;;;;6271856;28;20226;-58
2023/05/13 00:42:28;;;;;;;10.93;7.73;;;;;;;;;;6257220;28;20192;-58
2023/05/13 00:45:30;;;;;;;8.87;5.90;;;;;;;;;;6257032;28;20268;-58
2023/05/13 00:48:31;;;;;;;14.70;7.90;;;;;;;;;;6248684;28;20660;-58
2023/05/13 00:51:32;;;;;;;5.47;4.90;;;;;;;;;;6260274;28;20194;-58
2023/05/13 00:54:33;;;;;;;8.83;6.33;;;;;;;;;;6253183;28;20187;-58
2023/05/13 00:57:35;;;;;;;9.20;5.70;;;;;;;;;;6265554;28;20209;-58
2023/05/13 01:00:39;;;;;;;7.43;6.00;;;;;;;;;;6256361;28;20193;-58
2023/05/13 01:03:43;;;;;;;11.70;7.10;;;;;;;;;;6272437;28;20178;-58
2023/05/13 01:06:44;;;;;;;11.20;7.30;;;;;;;;;;6273876;28;20198;-59
2023/05/13 01:09:45;;;;;;;7.37;5.00;;;;;;;;;;6272796;28;20190;-59
2023/05/13 01:12:46;;;;;;;10.03;5.33;;;;;;;;;;6273141;28;20556;-59
2023/05/13 01:15:49;;;;;;;5.90;4.30;;;;;;;;;;6263095;28;20187;-59
2023/05/13 01:18:53;;;;;;;9.83;5.90;;;;;;;;;;6270671;28;20289;-59
2023/05/13 01:21:54;;;;;;;9.90;5.83;;;;;;;;;;6271464;28;20269;-59
2023/05/13 01:24:55;;;;;;;10.47;5.87;;;;;;;;;;6273439;28;20196;-59
2023/05/13 01:27:56;;;;;;;9.27;5.40;;;;;;;;;;6255912;28;20225;-59
2023/05/13 01:30:58;;;;;;;7.77;4.53;;;;;;;;;;6255672;28;20276;-59
2023/05/13 01:33:59;;;;;;;9.17;4.87;;;;;;;;;;6273299;28;20193;-59
2023/05/13 01:37:00;;;;;;;5.50;4.53;;;;;;;;;;6265370;28;20237;-59
2023/05/13 01:40:01;;;;;;;5.90;4.87;;;;;;;;;;6248397;28;20679;-59
2023/05/13 01:43:02;;;;;;;7.70;5.40;;;;;;;;;;6255582;28;20671;-59
2023/05/13 01:46:03;;;;;;;8.30;5.30;;;;;;;;;;6255987;28;20203;-59
2023/05/13 01:49:06;;;;;;;4.90;4.03;;;;;;;;;;6255175;28;20197;-60
2023/05/13 01:52:07;;;;;;;7.80;4.83;;;;;;;;;;6272575;28;20197;-59
2023/05/13 01:55:08;;;;;;;8.97;5.60;;;;;;;;;;6269323;28;20194;-59
2023/05/13 01:58:09;;;;;;;12.13;5.40;;;;;;;;;;6256473;28;20209;-59
2023/05/13 02:01:11;;;;;;;8.73;6.13;;;;;;;;;;6251636;28;20222;-58
2023/05/13 02:04:12;;;;;;;6.97;4.57;;;;;;;;;;6277216;28;20216;-59
2023/05/13 02:07:13;;;;;;;6.70;3.87;;;;;;;;;;6259180;28;20201;-59
2023/05/13 02:10:14;;;;;;;8.53;5.40;;;;;;;;;;6254180;28;20193;-59
2023/05/13 02:13:15;;;;;;;6.97;5.07;;;;;;;;;;6255969;28;20225;-58
2023/05/13 02:16:17;;;;;;;7.03;4.30;;;;;;;;;;6260246;28;20291;-58
2023/05/13 02:19:18;;;;;;;5.03;4.00;;;;;;;;;;6260447;28;20228;-59
2023/05/13 02:22:19;;;;;;;10.40;6.17;;;;;;;;;;6258175;28;20186;-59
2023/05/13 02:25:20;;;;;;;7.77;5.50;;;;;;;;;;6258229;28;20189;-59
2023/05/13 02:28:21;;;;;;;5.97;4.00;;;;;;;;;;6256469;28;20197;-59
2023/05/13 02:31:22;;;;;;;10.20;6.23;;;;;;;;;;6259637;28;20242;-59
2023/05/13 02:34:23;;;;;;;5.70;4.20;;;;;;;;;;6260357;28;20292;-59
2023/05/13 02:37:25;;;;;;;5.57;4.00;;;;;;;;;;6276012;28;20229;-59
2023/05/13 02:40:26;;;;;;;7.20;4.63;;;;;;;;;;6260162;28;20194;-58
2023/05/13 02:43:28;;;;;;;3.17;2.73;;;;;;;;;;6258836;28;20197;-58
2023/05/13 02:46:29;;;;;;;5.30;4.20;;;;;;;;;;6276498;28;20186;-58
2023/05/13 02:49:30;;;;;;;6.43;4.20;;;;;;;;;;6259996;28;20208;-58
2023/05/13 02:52:34;;;;;;;6.87;4.10;;;;;;;;;;6259231;28;20224;-58
2023/05/13 02:55:35;;;;;;;7.73;4.30;;;;;;;;;;6253271;28;20229;-58
2023/05/13 02:58:36;;;;;;;5.97;3.53;;;;;;;;;;6274045;28;20209;-58
2023/05/13 03:01:37;;;;;;;5.60;4.40;;;;;;;;;;6256194;28;20193;-58
2023/05/13 03:04:40;;;;;;;9.87;5.50;;;;;;;;;;6274115;28;20289;-58
2023/05/13 03:07:41;;;;;;;5.70;4.50;;;;;;;;;;6258962;28;20204;-58
2023/05/13 03:10:42;;;;;;;9.97;5.93;;;;;;;;;;6253249;28;20191;-58
2023/05/13 03:13:43;;;;;;;5.63;4.33;;;;;;;;;;6269064;28;20706;-58
2023/05/13 03:16:44;;;;;;;6.77;4.97;;;;;;;;;;6256261;28;20201;-58
2023/05/13 03:19:45;;;;;;;7.90;5.13;;;;;;;;;;6269647;28;20213;-58
2023/05/13 03:22:46;;;;;;;6.00;4.63;;;;;;;;;;6259098;28;20189;-58
2023/05/13 03:25:47;;;;;;;5.70;4.03;;;;;;;;;;6272063;28;20194;-58
2023/05/13 03:28:48;;;;;;;9.53;5.67;;;;;;;;;;6267527;28;20198;-58
2023/05/13 03:31:50;;;;;;;5.53;4.17;;;;;;;;;;6274717;28;20204;-58
2023/05/13 03:34:51;;;;;;;5.87;4.60;;;;;;;;;;6275531;28;20194;-58
2023/05/13 03:37:52;;;;;;;4.90;3.80;;;;;;;;;;6262001;28;20237;-58
2023/05/13 03:40:53;;;;;;;4.77;4.10;;;;;;;;;;6255435;28;20255;-58
2023/05/13 03:43:54;;;;;;;5.27;4.37;;;;;;;;;;6275305;28;20185;-59
2023/05/13 03:46:55;;;;;;;3.73;3.40;;;;;;;;;;6275690;28;20182;-59
2023/05/13 03:49:56;;;;;;;6.13;4.33;;;;;;;;;;6258977;28;20197;-58
2023/05/13 03:52:57;;;;;;;5.97;4.20;;;;;;;;;;6258775;28;20201;-58
2023/05/13 03:55:58;;;;;;;7.63;4.00;;;;;;;;;;6258020;28;20209;-57
2023/05/13 03:58:59;;;;;;;9.43;5.70;;;;;;;;;;6258190;28;20213;-55
2023/05/13 04:02:00;;;;;;;7.20;5.23;;;;;;;;;;6252676;28;20284;-52
2023/05/13 04:05:04;;;;;;;8.30;5.27;;;;;;;;;;6258498;28;20217;-54
2023/05/13 04:08:05;;;;;;;7.10;4.77;;;;;;;;;;6258350;28;20280;-51
2023/05/13 04:11:06;;;;;;;6.10;4.83;;;;;;;;;;6257626;28;20312;-58
2023/05/13 04:14:07;;;;;;;8.87;6.03;;;;;;;;;;6274376;28;20198;-56
2023/05/13 04:17:08;;;;;;;9.03;5.83;;;;;;;;;;6249993;28;20194;-56
2023/05/13 04:20:10;;;;;;;7.33;4.80;;;;;;;;;;6241060;28;20197;-62
2023/05/13 04:23:11;;;;;;;9.20;6.37;;;;;;;;;;6273520;28;20185;-55
2023/05/13 04:26:12;;;;;;;6.07;4.60;;;;;;;;;;6256964;28;20193;-55
2023/05/13 04:29:13;;;;;;;5.40;4.83;;;;;;;;;;6257355;28;20190;-55
2023/05/13 04:32:20;;;;;;;12.13;6.57;;;;;;;;;;6269321;28;20194;-55
2023/05/13 04:35:21;;;;;;;12.60;5.90;;;;;;;;;;6274049;28;20194;-54
2023/05/13 04:38:22;;;;;;;8.70;6.40;;;;;;;;;;6247932;28;20263;-54
2023/05/13 04:41:23;;;;;;;11.10;6.53;;;;;;;;;;6257404;28;20185;-56
2023/05/13 04:44:24;;;;;;;11.60;7.00;;;;;;;;;;6257634;28;20213;-55
2023/05/13 04:47:25;;;;;;;13.03;7.67;;;;;;;;;;6256944;28;20203;-56
2023/05/13 04:50:26;;;;;;;15.90;8.20;;;;;;;;;;6257109;28;20193;-56
2023/05/13 04:53:27;;;;;;;12.73;7.50;;;;;;;;;;6248242;28;20250;-52
2023/05/13 04:56:28;;;;;;;11.37;7.43;;;;;;;;;;6257200;28;20221;-54
2023/05/13 04:59:29;;;;;;;17.97;9.37;;;;;;;;;;6257347;28;20217;-55
2023/05/13 05:02:31;;;;;;;13.97;7.57;;;;;;;;;;6252950;28;20197;-55
2023/05/13 05:05:32;;;;;;;17.83;8.37;;;;;;;;;;6273043;28;20196;-59
2023/05/13 05:08:33;;;;;;;12.87;7.17;;;;;;;;;;6257060;28;20194;-59
2023/05/13 05:11:34;;;;;;;13.63;7.47;;;;;;;;;;6256391;28;20193;-59
2023/05/13 05:14:35;;;;;;;12.90;8.33;;;;;;;;;;6250355;28;20288;-59
2023/05/13 05:17:36;;;;;;;11.70;7.70;;;;;;;;;;6247950;28;20241;-55
2023/05/13 05:20:37;;;;;;;18.50;9.90;;;;;;;;;;6251760;28;20301;-51
2023/05/13 05:23:39;;;;;;;16.60;9.97;;;;;;;;;;6273173;28;20195;-51
2023/05/13 05:26:40;;;;;;;16.90;9.87;;;;;;;;;;6257938;28;20194;-49
2023/05/13 05:29:41;;;;;;;17.80;10.43;;;;;;;;;;6250663;28;20199;-58
2023/05/13 05:32:42;;;;;;;16.33;9.10;;;;;;;;;;6259231;28;20193;-57
2023/05/13 05:35:43;;;;;;;19.97;11.00;;;;;;;;;;6255917;28;20284;-55
2023/05/13 05:38:44;;;;;;;17.83;10.53;;;;;;;;;;6256437;28;20283;-61
2023/05/13 05:41:46;;;;;;;19.97;10.80;;;;;;;;;;6253092;28;20220;-56
2023/05/13 05:44:47;;;;;;;39.53;16.93;;;;;;;;;;6252092;28;20240;-58
2023/05/13 05:47:48;;;;;;;26.40;13.20;;;;;;;;;;6254523;28;20196;-55
2023/05/13 05:50:49;;;;;;;23.07;13.47;;;;;;;;;;6254615;28;20244;-55
2023/05/13 05:53:50;;;;;;;41.43;16.77;;;;;;;;;;6254129;28;20198;-55
2023/05/13 05:56:51;;;;;;;32.47;17.17;;;;;;;;;;6254061;28;20197;-58
2023/05/13 05:59:52;;;;;;;32.33;16.00;;;;;;;;;;6261863;28;20221;-55
2023/05/13 06:02:53;;;;;;;25.03;13.53;;;;;;;;;;6255553;28;20216;-56
2023/05/13 06:05:54;;;;;;;53.77;20.70;;;;;;;;;;6266966;28;20190;-55
2023/05/13 06:08:55;;;;;;;38.53;18.37;;;;;;;;;;6253948;28;20194;-55
2023/05/13 06:11:56;;;;;;;23.07;15.00;;;;;;;;;;6245558;28;20295;-58
2023/05/13 06:14:57;;;;;;;51.90;21.30;;;;;;;;;;6245769;28;20221;-53
2023/05/13 06:17:58;;;;;;;29.87;15.93;;;;;;;;;;6249588;28;20644;-55
2023/05/13 06:20:59;;;;;;;35.27;18.30;;;;;;;;;;6253822;28;20265;-54
2023/05/13 06:24:01;;;;;;;33.17;18.47;;;;;;;;;;6264984;28;20284;-51
2023/05/13 06:27:03;;;;;;;47.27;20.93;;;;;;;;;;6261669;28;20191;-55
2023/05/13 06:30:04;;;;;;;50.33;21.53;;;;;;;;;;6254900;28;20226;-54
2023/05/13 06:33:07;;;;;;;42.47;19.50;;;;;;;;;;6246067;28;20198;-53
2023/05/13 06:36:08;;;;;;;41.47;19.43;;;;;;;;;;6282964;28;20220;-56
2023/05/13 06:39:10;;;;;;;33.30;17.60;;;;;;;;;;6268865;28;20234;-52
2023/05/13 06:42:11;;;;;;;31.50;14.77;;;;;;;;;;6251020;28;20208;-52
2023/05/13 06:45:12;;;;;;;26.87;14.47;;;;;;;;;;6251349;28;20194;-55
2023/05/13 06:48:13;;;;;;;39.23;19.57;;;;;;;;;;6276296;28;20193;-52
2023/05/13 06:51:14;;;;;;;18.30;12.73;;;;;;;;;;6259709;28;20599;-54
2023/05/13 06:54:15;;;;;;;29.63;15.50;;;;;;;;;;6266530;28;20197;-50
2023/05/13 06:57:16;;;;;;;37.03;18.00;;;;;;;;;;6276158;28;20199;-54
2023/05/13 07:00:18;;;;;;;24.77;14.97;;;;;;;;;;6258937;28;20181;-52
2023/05/13 07:03:19;;;;;;;36.87;16.90;;;;;;;;;;6258319;28;20288;-55
2023/05/13 07:06:20;;;;;;;41.40;19.23;;;;;;;;;;6259784;28;20204;-53
2023/05/13 07:09:21;;;;;;;24.27;14.77;;;;;;;;;;6244965;28;20205;-54
2023/05/13 07:12:22;;;;;;;17.80;12.03;;;;;;;;;;6259044;28;20201;-53
2023/05/13 07:15:23;;;;;;;35.53;18.50;;;;;;;;;;6275609;28;20200;-55
2023/05/13 07:18:24;;;;;;;22.10;14.00;;;;;;;;;;6275034;28;20216;-54
2023/05/13 07:21:25;;;;;;;27.80;15.83;;;;;;;;;;6259125;28;20242;-54
2023/05/13 07:24:26;;;;;;;22.83;15.63;;;;;;;;;;6275339;28;20311;-56
2023/05/13 07:27:27;;;;;;;32.83;17.47;;;;;;;;;;6258936;28;20193;-55
2023/05/13 07:30:28;;;;;;;32.67;16.93;;;;;;;;;;6253732;28;20209;-56
2023/05/13 07:33:30;;;;;;;37.73;16.90;;;;;;;;;;6275319;28;20218;-53
2023/05/13 07:36:31;;;;;;;26.33;14.77;;;;;;;;;;6257876;28;20710;-55
2023/05/13 07:39:32;;;;;;;23.57;12.97;;;;;;;;;;6261077;28;20217;-54
2023/05/13 07:42:33;;;;;;;28.77;14.23;;;;;;;;;;6243753;28;20243;-53
2023/05/13 07:45:34;;;;;;;23.03;15.13;;;;;;;;;;6244816;28;20284;-56
2023/05/13 07:48:35;;;;;;;21.63;14.73;;;;;;;;;;6243464;28;20197;-56
2023/05/13 07:51:36;;;;;;;15.77;12.80;;;;;;;;;;6245224;28;20201;-52
2023/05/13 07:54:37;;;;;;;17.97;12.70;;;;;;;;;;6243957;28;20206;-53
2023/05/13 07:57:38;;;;;;;19.40;11.83;;;;;;;;;;6261624;28;20263;-56
2023/05/13 08:00:39;;;;;;;22.00;13.17;;;;;;;;;;6244966;28;20197;-54
2023/05/13 08:03:40;;;;;;;18.00;11.80;;;;;;;;;;6244781;28;20193;-56
2023/05/13 08:06:41;;;;;;;13.17;10.50;;;;;;;;;;6244018;28;20201;-53
2023/05/13 08:09:42;;;;;;;16.90;10.13;;;;;;;;;;6261452;28;20259;-55
2023/05/13 08:12:49;;;;;;;9.80;8.80;;;;;;;;;;6244915;28;20201;-56
2023/05/13 08:15:51;;;;;;;10.13;8.70;;;;;;;;;;6245396;28;20251;-58
2023/05/13 08:18:52;;;;;;;12.27;9.40;;;;;;;;;;6244156;28;20226;-59
2023/05/13 08:21:53;;;;;;;13.43;8.60;;;;;;;;;;6259981;28;20193;-58
2023/05/13 08:24:54;;;;;;;9.53;7.70;;;;;;;;;;6276631;28;20209;-58
2023/05/13 08:27:56;;;;;;;10.00;7.53;;;;;;;;;;6243807;28;20385;-58
2023/05/13 08:31:01;;;;;;;9.80;7.57;;;;;;;;;;6261072;28;20221;-58
2023/05/13 08:34:02;;;;;;;12.60;7.20;;;;;;;;;;6245023;28;20282;-57
2023/05/13 08:37:03;;;;;;;11.67;7.90;;;;;;;;;;6242778;28;20245;-55
2023/05/13 08:40:05;;;;;;;7.10;6.37;;;;;;;;;;6260482;28;20197;-56
2023/05/13 08:43:06;;;;;;;8.07;6.03;;;;;;;;;;6243170;28;20205;-57
2023/05/13 08:46:09;;;;;;;6.47;5.33;;;;;;;;;;6244297;28;20190;-57
2023/05/13 08:49:10;;;;;;;6.23;5.63;;;;;;;;;;6259876;28;20193;-57
2023/05/13 08:52:11;;;;;;;9.73;6.73;;;;;;;;;;6244009;28;20204;-57
2023/05/13 08:55:13;;;;;;;6.33;5.60;;;;;;;;;;6259411;28;20204;-58
2023/05/13 08:58:14;;;;;;;7.67;5.90;;;;;;;;;;6242369;28;20252;-58
2023/05/13 09:01:16;;;;;;;7.07;5.10;;;;;;;;;;6242793;28;20225;-57
2023/05/13 09:04:18;;;;;;;6.43;5.80;;;;;;;;;;6243590;28;20239;-57
2023/05/13 09:07:19;;;;;;;7.23;5.73;;;;;;;;;;6258086;28;20224;-58
2023/05/13 09:10:20;;;;;;;4.50;4.10;;;;;;;;;;6241053;28;20189;-58
2023/05/13 09:13:21;;;;;;;6.13;5.53;;;;;;;;;;6238927;28;20240;-58
2023/05/13 09:16:23;;;;;;;6.23;5.07;;;;;;;;;;6253229;28;20192;-58
2023/05/13 09:19:25;;;;;;;7.10;4.70;;;;;;;;;;6255712;28;20313;-57
2023/05/13 09:22:26;;;;;;;6.83;5.40;;;;;;;;;;6255796;28;20205;-59
2023/05/13 09:25:27;;;;;;;9.07;5.53;;;;;;;;;;6241841;28;20288;-58
2023/05/13 09:28:28;;;;;;;7.13;6.20;;;;;;;;;;6258350;28;20256;-57
2023/05/13 09:31:33;;;;;;;8.00;6.30;;;;;;;;;;6259343;28;20228;-57
2023/05/13 09:34:34;;;;;;;7.17;6.47;;;;;;;;;;6243590;28;20194;-58
2023/05/13 09:37:35;;;;;;;8.10;7.30;;;;;;;;;;6258874;28;21227;-58
2023/05/13 09:40:37;;;;;;;8.47;7.30;;;;;;;;;;6243864;28;20251;-59
2023/05/13 09:43:38;;;;;;;12.13;8.70;;;;;;;;;;6245718;28;20182;-58
2023/05/13 09:46:41;;;;;;;11.23;8.87;;;;;;;;;;6245207;28;20186;-58
2023/05/13 09:49:52;;;;;;;10.73;8.07;;;;;;;;;;6257398;28;20251;-58
2023/05/13 09:52:53;;;;;;;9.83;7.70;;;;;;;;;;6260903;28;20191;-58
2023/05/13 09:55:55;;;;;;;7.93;6.83;;;;;;;;;;6249992;28;20646;-56
2023/05/13 09:58:56;;;;;;;8.13;7.37;;;;;;;;;;6244453;28;20729;-55
2023/05/13 10:01:59;;;;;;;11.27;8.00;;;;;;;;;;6248640;28;20198;-55
2023/05/13 10:05:01;;;;;;;10.20;7.87;;;;;;;;;;6272875;28;20193;-57
2023/05/13 10:08:02;;;;;;;9.83;7.43;;;;;;;;;;6266226;28;20535;-56
2023/05/13 10:11:03;;;;;;;7.97;6.90;;;;;;;;;;6265687;28;20200;-55
2023/05/13 10:14:07;;;;;;;8.17;7.33;;;;;;;;;;6253946;28;20698;-55
2023/05/13 10:17:08;;;;;;;11.30;7.47;;;;;;;;;;6254292;28;20291;-57
2023/05/13 10:20:10;;;;;;;8.20;7.10;;;;;;;;;;6255411;28;20202;-56
2023/05/13 10:23:11;;;;;;;8.30;6.50;;;;;;;;;;6265630;28;20203;-57
2023/05/13 10:26:12;;;;;;;7.07;6.23;;;;;;;;;;6277125;28;20248;-57
2023/05/13 10:29:14;;;;;;;6.73;6.00;;;;;;;;;;6274927;28;20205;-57
2023/05/13 10:32:15;;;;;;;6.70;6.07;;;;;;;;;;6257496;28;20208;-56
2023/05/13 10:35:17;;;;;;;7.77;6.53;;;;;;;;;;6250460;28;20280;-56
2023/05/13 10:38:33;;;;;;;5.40;4.90;;;;;;;;;;6275994;28;20265;-57
2023/05/13 10:41:47;;;;;;;6.97;5.90;;;;;;;;;;6292177;28;20209;-55
2023/05/13 10:44:51;;;;;;;8.83;6.00;;;;;;;;;;6277138;28;20186;-56
2023/05/13 10:47:55;;;;;;;6.83;5.80;;;;;;;;;;6276251;28;20194;-57
2023/05/13 10:51:00;;;;;;;6.17;5.57;;;;;;;;;;6276298;28;20224;-57
2023/05/13 10:54:01;;;;;;;6.47;5.87;;;;;;;;;;6276724;28;20194;-56
2023/05/13 10:57:02;;;;;;;10.27;6.40;;;;;;;;;;6259833;28;20287;-57
2023/05/13 11:00:17;;;;;;;11.27;7.37;;;;;;;;;;6268728;28;20223;-58
2023/05/13 11:03:17;;;;;;;9.30;7.63;;;;;;;;;;6272721;28;20191;-57
2023/05/13 11:06:22;;;;;;;10.93;8.30;;;;;;;;;;6285433;28;20209;-58
2023/05/13 11:09:23;;;;;;;10.80;8.33;;;;;;;;;;6276257;28;20198;-58
2023/05/13 11:12:24;;;;;;;18.70;11.60;;;;;;;;;;6263816;28;20197;-58
2023/05/13 11:15:42;;;;;;;20.63;12.97;;;;;;;;;;6263926;28;20193;-58
2023/05/13 11:18:43;;;;;;;23.97;15.33;;;;;;;;;;6299639;28;20253;-60
2023/05/13 11:21:47;;;;;;;28.40;15.23;;;;;;;;;;6257314;28;20200;-58
2023/05/13 11:25:08;;;;;;;29.80;17.37;;;;;;;;;;6274660;28;20545;-58
2023/05/13 11:28:09;;;;;;;31.10;18.23;;;;;;;;;;6273432;28;20221;-61
2023/05/13 11:31:16;;;;;;;31.93;17.80;;;;;;;;;;6273687;28;20200;-60
2023/05/13 11:34:18;;;;;;;45.87;21.57;;;;;;;;;;6275956;28;20209;-61
2023/05/13 11:37:19;;;;;;;32.40;19.40;;;;;;;;;;6260141;28;20287;-56
2023/05/13 11:40:26;;;;;;;34.73;19.53;;;;;;;;;;6249638;28;20202;-58
2023/05/13 11:43:27;;;;;;;26.37;18.13;;;;;;;;;;6277936;28;20214;-57
2023/05/13 11:46:28;;;;;;;36.83;21.70;;;;;;;;;;6273824;28;20236;-58
2023/05/13 11:49:40;;;;;;;27.90;18.97;;;;;;;;;;6258412;28;20193;-57
2023/05/13 11:52:41;;;;;;;46.23;22.97;;;;;;;;;;6275030;28;20193;-58
2023/05/13 11:55:42;;;;;;;27.57;18.33;;;;;;;;;;6253054;28;20289;-57
2023/05/13 11:58:43;;;;;;;38.00;20.77;;;;;;;;;;6246922;28;20335;-58
2023/05/13 12:01:44;;;;;;;39.77;22.30;;;;;;;;;;6285182;28;20186;-58
2023/05/13 12:04:46;;;;;;;44.80;22.43;;;;;;;;;;6273417;28;20193;-58
2023/05/13 12:07:47;;;;;;;34.83;21.80;;;;;;;;;;6248193;28;20286;-58
2023/05/13 12:10:48;;;;;;;36.60;23.07;;;;;;;;;;6272376;28;20243;-58
2023/05/13 12:13:49;;;;;;;30.43;20.23;;;;;;;;;;6272598;28;20272;-58
2023/05/13 12:16:51;;;;;;;32.10;21.33;;;;;;;;;;6252207;28;20232;-58
2023/05/13 12:20:11;;;;;;;29.47;20.17;;;;;;;;;;6252412;28;20221;-58
2023/05/13 12:23:12;;;;;;;36.03;20.73;;;;;;;;;;6269922;28;20197;-59
2023/05/13 12:26:14;;;;;;;24.30;19.20;;;;;;;;;;6261660;28;20707;-58
2023/05/13 12:29:15;;;;;;;36.10;20.97;;;;;;;;;;6245175;28;20210;-57
2023/05/13 12:32:16;;;;;;;32.20;21.67;;;;;;;;;;6263984;28;20221;-58
2023/05/13 12:35:17;;;;;;;27.60;19.10;;;;;;;;;;6256392;28;20284;-58
2023/05/13 12:38:19;;;;;;;26.43;17.43;;;;;;;;;;6262722;28;20230;-58
2023/05/13 12:41:21;;;;;;;29.60;19.40;;;;;;;;;;6260517;28;20214;-58
2023/05/13 12:44:22;;;;;;;27.03;18.63;;;;;;;;;;6255918;28;20182;-59
2023/05/13 12:47:23;;;;;;;22.17;17.17;;;;;;;;;;6261072;28;20652;-59
2023/05/13 12:50:25;;;;;;;17.47;14.47;;;;;;;;;;6242693;28;20199;-58
2023/05/13 12:53:26;;;;;;;17.77;14.73;;;;;;;;;;6269297;28;20185;-58
2023/05/13 12:56:27;;;;;;;20.57;15.27;;;;;;;;;;6262668;28;20186;-58
2023/05/13 12:59:30;;;;;;;25.13;17.07;;;;;;;;;;6254592;28;20228;-58
2023/05/13 13:02:31;;;;;;;22.97;16.73;;;;;;;;;;6254755;28;20247;-58
2023/05/13 13:05:32;;;;;;;22.07;15.87;;;;;;;;;;6250122;28;20202;-58
2023/05/13 13:08:33;;;;;;;21.20;15.60;;;;;;;;;;6257462;28;20213;-58
2023/05/13 13:11:34;;;;;;;20.47;15.67;;;;;;;;;;6262175;28;20189;-59
2023/05/13 13:14:35;;;;;;;18.30;15.67;;;;;;;;;;6255209;28;20201;-59
2023/05/13 13:17:37;;;;;;;18.27;13.40;;;;;;;;;;6241768;28;20317;-58
2023/05/13 13:20:38;;;;;;;18.63;13.63;;;;;;;;;;6282501;28;20182;-59
2023/05/13 13:23:39;;;;;;;21.67;13.97;;;;;;;;;;6270472;28;20185;-58
2023/05/13 13:26:40;;;;;;;15.53;11.70;;;;;;;;;;6252906;28;20186;-57
2023/05/13 13:29:41;;;;;;;14.17;12.67;;;;;;;;;;6252328;28;20193;-58
2023/05/13 13:32:42;;;;;;;13.80;11.57;;;;;;;;;;6246885;28;20193;-60
2023/05/13 13:35:43;;;;;;;14.07;11.67;;;;;;;;;;6251278;28;20194;-59
2023/05/13 13:38:44;;;;;;;16.33;11.70;;;;;;;;;;6271297;28;20350;-60
2023/05/13 13:41:46;;;;;;;15.67;11.77;;;;;;;;;;6255667;28;20226;-60
2023/05/13 13:44:47;;;;;;;15.63;12.43;;;;;;;;;;6253376;28;20193;-59
2023/05/13 13:47:48;;;;;;;21.83;13.43;;;;;;;;;;6246034;28;20203;-59
2023/05/13 13:50:49;;;;;;;12.57;11.13;;;;;;;;;;6233134;28;20231;-58
2023/05/13 13:53:50;;;;;;;13.53;11.97;;;;;;;;;;6269928;28;20193;-59
2023/05/13 13:56:51;;;;;;;19.40;13.53;;;;;;;;;;6243926;28;20284;-59
2023/05/13 13:59:52;;;;;;;15.63;11.90;;;;;;;;;;6242599;28;20225;-60
2023/05/13 14:02:53;;;;;;;13.13;11.20;;;;;;;;;;6264749;28;20197;-61
2023/05/13 14:05:54;;;;;;;14.37;11.07;;;;;;;;;;6257741;28;20599;-61
2023/05/13 14:08:56;;;;;;;15.97;12.73;;;;;;;;;;6261486;28;20236;-61
2023/05/13 14:11:57;;;;;;;16.77;11.93;;;;;;;;;;6273437;28;20728;-61
2023/05/13 14:14:58;;;;;;;17.90;12.77;;;;;;;;;;6263768;28;20205;-59
2023/05/13 14:17:59;;;;;;;17.43;12.17;;;;;;;;;;6267754;28;20214;-60
2023/05/13 14:21:00;;;;;;;14.20;10.67;;;;;;;;;;6258189;28;20265;-59
2023/05/13 14:24:02;;;;;;;15.60;11.37;;;;;;;;;;6257392;28;20284;-60
2023/05/13 14:27:03;;;;;;;14.57;11.30;;;;;;;;;;6255380;28;20186;-60
2023/05/13 14:30:05;;;;;;;10.60;9.43;;;;;;;;;;6251487;28;20652;-60
2023/05/13 14:33:06;;;;;;;14.70;10.10;;;;;;;;;;6248141;28;20212;-60
2023/05/13 14:36:09;;;;;;;12.13;10.37;;;;;;;;;;6250980;28;20205;-60
2023/05/13 14:39:11;;;;;;;11.87;10.50;;;;;;;;;;6284462;28;20309;-61
2023/05/13 14:42:12;;;;;;;15.20;10.50;;;;;;;;;;6252384;28;20289;-60
2023/05/13 14:45:13;;;;;;;10.07;9.10;;;;;;;;;;6252293;28;20193;-60
2023/05/13 14:48:15;;;;;;;14.57;9.47;;;;;;;;;;6257349;28;20209;-60
2023/05/13 14:51:16;;;;;;;8.50;7.70;;;;;;;;;;6257876;28;20221;-60
2023/05/13 14:54:17;;;;;;;11.53;9.53;;;;;;;;;;6262505;28;20315;-60
2023/05/13 14:57:18;;;;;;;9.57;8.50;;;;;;;;;;6255908;28;20298;-59
2023/05/13 15:00:19;;;;;;;10.63;8.63;;;;;;;;;;6253943;28;20205;-60
2023/05/13 15:03:20;;;;;;;12.90;9.10;;;;;;;;;;6258753;28;20209;-60
2023/05/13 15:06:22;;;;;;;11.20;10.13;;;;;;;;;;6244174;28;20222;-60
2023/05/13 15:09:23;;;;;;;10.73;9.63;;;;;;;;;;6256078;28;20193;-60
2023/05/13 15:12:24;;;;;;;14.03;9.97;;;;;;;;;;6258545;28;20207;-60
2023/05/13 15:15:25;;;;;;;13.97;11.97;;;;;;;;;;6262588;28;20190;-60
2023/05/13 15:18:26;;;;;;;15.87;11.20;;;;;;;;;;6264023;28;20213;-61
2023/05/13 15:21:27;;;;;;;11.13;9.93;;;;;;;;;;6253933;28;20209;-60
2023/05/13 15:24:28;;;;;;;15.40;11.80;;;;;;;;;;6257168;28;20201;-60
2023/05/13 15:27:29;;;;;;;14.03;10.77;;;;;;;;;;6255447;28;20190;-61
2023/05/13 15:30:34;;;;;;;15.63;11.40;;;;;;;;;;6255729;28;20205;-61
2023/05/13 15:33:35;;;;;;;15.50;12.30;;;;;;;;;;6260138;28;20198;-60
2023/05/13 15:36:36;;;;;;;12.27;10.83;;;;;;;;;;6240191;28;20194;-61
2023/05/13 15:39:37;;;;;;;17.37;12.43;;;;;;;;;;6275365;28;20245;-61
2023/05/13 15:42:38;;;;;;;14.83;12.00;;;;;;;;;;6257078;28;20183;-61
2023/05/13 15:45:40;;;;;;;16.33;14.17;;;;;;;;;;6259241;28;20186;-61
2023/05/13 15:48:41;;;;;;;22.17;14.00;;;;;;;;;;6247121;28;20753;-61
2023/05/13 15:51:42;;;;;;;15.20;12.13;;;;;;;;;;6262169;28;20221;-61
2023/05/13 15:54:43;;;;;;;20.67;15.13;;;;;;;;;;6255785;28;20193;-61
2023/05/13 15:57:44;;;;;;;20.60;14.40;;;;;;;;;;6249260;28;20279;-62
2023/05/13 16:00:45;;;;;;;21.77;13.30;;;;;;;;;;6251774;28;20202;-61
2023/05/13 16:03:46;;;;;;;20.60;13.87;;;;;;;;;;6250495;28;20198;-61
2023/05/13 16:06:47;;;;;;;15.67;13.57;;;;;;;;;;6255276;28;20638;-60
2023/05/13 16:09:48;;;;;;;24.10;15.27;;;;;;;;;;6261802;28;20538;-60
2023/05/13 16:12:49;;;;;;;21.07;13.73;;;;;;;;;;6248749;28;20195;-61
2023/05/13 16:15:52;;;;;;;16.50;13.23;;;;;;;;;;6233304;28;20198;-61
2023/05/13 16:18:53;;;;;;;25.07;16.63;;;;;;;;;;6270167;28;20238;-61
2023/05/13 16:21:54;;;;;;;15.43;13.40;;;;;;;;;;6255770;28;20225;-61
2023/05/13 16:25:05;;;;;;;18.40;15.03;;;;;;;;;;6263527;28;20272;-61
2023/05/13 16:28:06;;;;;;;17.17;14.43;;;;;;;;;;6269112;28;20244;-61
2023/05/13 16:31:07;;;;;;;25.13;16.60;;;;;;;;;;6264298;28;20196;-61
2023/05/13 16:34:08;;;;;;;21.23;14.47;;;;;;;;;;6264168;28;20274;-60
2023/05/13 16:37:09;;;;;;;24.87;15.50;;;;;;;;;;6253870;28;20245;-61
2023/05/13 16:40:11;;;;;;;17.97;13.27;;;;;;;;;;6250134;28;20287;-60
2023/05/13 16:43:12;;;;;;;17.50;13.70;;;;;;;;;;6257767;28;20198;-61
2023/05/13 16:46:13;;;;;;;18.30;14.03;;;;;;;;;;6251446;28;20201;-60
2023/05/13 16:49:14;;;;;;;15.43;13.20;;;;;;;;;;6255740;28;20194;-60
2023/05/13 16:52:15;;;;;;;16.80;12.03;;;;;;;;;;6253617;28;20197;-64
2023/05/13 16:55:16;;;;;;;18.40;12.60;;;;;;;;;;6256603;28;20213;-61
2023/05/13 16:58:17;;;;;;;15.40;11.23;;;;;;;;;;6256490;28;20214;-60
2023/05/13 17:01:18;;;;;;;22.17;12.23;;;;;;;;;;6260421;28;20186;-60
2023/05/13 17:04:19;;;;;;;16.10;12.53;;;;;;;;;;6246314;28;20191;-60
2023/05/13 17:07:20;;;;;;;18.33;12.93;;;;;;;;;;6255966;28;20203;-60
2023/05/13 17:10:22;;;;;;;16.67;12.03;;;;;;;;;;6259980;28;20340;-60
2023/05/13 17:13:23;;;;;;;22.97;14.63;;;;;;;;;;6257068;28;20225;-60
2023/05/13 17:16:24;;;;;;;14.63;12.50;;;;;;;;;;6246969;28;20282;-61
2023/05/13 17:19:25;;;;;;;14.93;12.17;;;;;;;;;;6259281;28;20249;-59
2023/05/13 17:22:26;;;;;;;17.90;13.07;;;;;;;;;;6258811;28;20227;-61
2023/05/13 17:25:27;;;;;;;14.40;12.47;;;;;;;;;;6259658;28;20193;-60
2023/05/13 17:28:28;;;;;;;21.90;15.00;;;;;;;;;;6261392;28;20220;-60
2023/05/13 17:31:29;;;;;;;15.70;12.27;;;;;;;;;;6253982;28;20303;-59
2023/05/13 17:34:30;;;;;;;14.97;13.20;;;;;;;;;;6250587;28;20194;-60
2023/05/13 17:37:31;;;;;;;15.40;11.30;;;;;;;;;;6233224;28;20336;-60
2023/05/13 17:40:34;;;;;;;14.20;11.73;;;;;;;;;;6231027;28;20206;-59
2023/05/13 17:43:35;;;;;;;18.00;13.17;;;;;;;;;;6258376;28;20189;-59
2023/05/13 17:46:36;;;;;;;18.17;13.03;;;;;;;;;;6255067;28;20193;-58
2023/05/13 17:49:37;;;;;;;13.67;11.93;;;;;;;;;;6252167;28;20324;-60